Airport View

Enter AWOS ICAO identifier for current METAR.

ex. KFNL

KSTK 192000Z AUTO 14003KT 10SM CLR 36/14 A2998 RMK AO2

19 Aug 2019 20:17

Frequency: 118.525

Phone: 970-526-3009

Other Area AWOS: KAKO - KFMM - KSNY - KIBM

TAF KSNY 191746Z 1918/2018 20006KT P6SM SKC FM192200 12010KT P6SM SKC FM200300 15008KT P6SM SCT200 FM201100 35006KT P6SM SCT200 FM201700 07011KT P6SM SCT200